createdAt,value
2022-10-01T00:02:21.222Z,2.93
2022-10-01T00:05:23.232Z,3.03
2022-10-01T00:08:24.918Z,3.23
2022-10-01T00:11:26.746Z,3.10
2022-10-01T00:14:28.413Z,3.03
2022-10-01T00:17:30.085Z,3.20
2022-10-01T00:20:31.660Z,3.00
2022-10-01T00:23:33.189Z,3.10
2022-10-01T00:26:36.112Z,3.30
2022-10-01T00:29:37.756Z,3.73
2022-10-01T00:32:41.188Z,3.40
2022-10-01T00:35:42.947Z,3.37
2022-10-01T00:38:46.366Z,3.23
2022-10-01T00:41:48.148Z,3.00
2022-10-01T00:44:50.137Z,3.27
2022-10-01T00:47:55.672Z,3.20
2022-10-01T00:50:57.570Z,3.13
2022-10-01T00:54:03.143Z,3.07
2022-10-01T00:57:06.102Z,3.17
2022-10-01T01:00:08.930Z,3.40
2022-10-01T01:03:10.877Z,3.37
2022-10-01T01:06:12.493Z,3.33
2022-10-01T01:09:14.162Z,3.60
2022-10-01T01:12:22.695Z,3.33
2022-10-01T01:15:30.285Z,2.80
2022-10-01T01:18:34.761Z,3.20
2022-10-01T01:21:44.393Z,3.37
2022-10-01T01:24:50.179Z,3.40
2022-10-01T01:27:57.933Z,3.33
2022-10-01T01:31:01.423Z,3.40
2022-10-01T01:34:04.489Z,3.60
2022-10-01T01:37:12.028Z,3.13
2022-10-01T01:40:14.701Z,3.43
2022-10-01T01:43:20.607Z,3.30
2022-10-01T01:46:24.110Z,3.23
2022-10-01T01:49:25.743Z,3.97
2022-10-01T01:52:27.796Z,3.70
2022-10-01T01:55:30.055Z,3.43
2022-10-01T01:58:32.931Z,3.60
2022-10-01T02:01:41.738Z,3.60
2022-10-01T02:04:43.380Z,3.70
2022-10-01T02:07:47.861Z,3.90
2022-10-01T02:10:49.428Z,3.57
2022-10-01T02:13:51.049Z,3.60
2022-10-01T02:17:06.473Z,3.83
2022-10-01T02:20:15.633Z,3.97
2022-10-01T02:23:25.463Z,4.10
2022-10-01T02:26:28.529Z,3.93
2022-10-01T02:29:31.185Z,3.90
2022-10-01T02:32:33.125Z,3.90
2022-10-01T02:35:35.900Z,4.17
2022-10-01T02:38:38.565Z,4.20
2022-10-01T02:41:41.322Z,3.67
2022-10-01T02:44:45.097Z,4.30
2022-10-01T02:47:49.763Z,4.10
2022-10-01T02:50:59.138Z,4.13
2022-10-01T02:54:19.897Z,4.20
2022-10-01T02:57:24.517Z,4.03
2022-10-01T03:00:27.114Z,3.87
2022-10-01T03:03:28.772Z,4.00
2022-10-01T03:06:30.404Z,4.13
2022-10-01T03:09:32.400Z,4.03
2022-10-01T03:12:34.506Z,4.83
2022-10-01T03:15:36.125Z,4.53
2022-10-01T03:18:37.841Z,4.83
2022-10-01T03:21:39.405Z,4.37
2022-10-01T03:24:40.984Z,4.50
2022-10-01T03:27:42.925Z,4.67
2022-10-01T03:30:45.433Z,4.73
2022-10-01T03:33:47.031Z,4.80
2022-10-01T03:36:48.778Z,4.87
2022-10-01T03:39:50.303Z,5.00
2022-10-01T03:42:51.866Z,4.57
2022-10-01T03:45:53.444Z,5.13
2022-10-01T03:48:55.922Z,4.90
2022-10-01T03:51:57.592Z,4.97
2022-10-01T03:55:00.744Z,4.83
2022-10-01T03:58:02.893Z,5.03
2022-10-01T04:01:04.804Z,4.90
2022-10-01T04:04:06.757Z,5.10
2022-10-01T04:07:08.372Z,5.43
2022-10-01T04:10:10.200Z,5.63
2022-10-01T04:13:12.087Z,5.47
2022-10-01T04:16:13.882Z,5.90
2022-10-01T04:19:15.417Z,6.03
2022-10-01T04:22:17.040Z,6.10
2022-10-01T04:25:18.652Z,6.03
2022-10-01T04:28:20.383Z,6.40
2022-10-01T04:31:24.785Z,6.40
2022-10-01T04:34:46.422Z,5.40
2022-10-01T04:37:48.411Z,5.30
2022-10-01T04:40:50.040Z,5.53
2022-10-01T04:43:51.871Z,6.30
2022-10-01T04:46:53.769Z,5.83
2022-10-01T04:49:55.413Z,5.57
2022-10-01T04:52:57.003Z,5.70
2022-10-01T04:55:58.567Z,5.53
2022-10-01T04:59:00.260Z,6.20
2022-10-01T05:02:01.917Z,5.50
2022-10-01T05:05:04.461Z,5.50
2022-10-01T05:08:06.081Z,5.80
2022-10-01T05:11:07.832Z,5.87
2022-10-01T05:14:09.509Z,5.93
2022-10-01T05:17:11.058Z,6.10
2022-10-01T05:20:20.513Z,5.70
2022-10-01T05:23:22.112Z,5.63
2022-10-01T05:26:23.724Z,5.50
2022-10-01T05:29:25.744Z,5.97
2022-10-01T05:32:27.276Z,5.80
2022-10-01T05:35:29.242Z,5.80
2022-10-01T05:38:30.969Z,5.23
2022-10-01T05:41:32.798Z,5.50
2022-10-01T05:44:37.963Z,5.17
2022-10-01T05:47:42.393Z,5.40
2022-10-01T05:50:44.344Z,5.87
2022-10-01T05:53:50.530Z,5.90
2022-10-01T05:56:53.650Z,6.00
2022-10-01T05:59:56.265Z,6.37
2022-10-01T06:02:58.461Z,5.97
2022-10-01T06:06:00.938Z,6.73
2022-10-01T06:09:02.506Z,7.20
2022-10-01T06:12:05.232Z,6.60
2022-10-01T06:15:07.042Z,6.70
2022-10-01T06:18:09.631Z,6.13
2022-10-01T06:21:11.290Z,6.17
2022-10-01T06:24:12.911Z,6.77
2022-10-01T06:27:14.546Z,6.00
2022-10-01T06:30:16.249Z,6.80
2022-10-01T06:33:18.365Z,18.03
2022-10-01T06:36:20.035Z,8.00
2022-10-01T06:39:21.558Z,6.07
2022-10-01T06:42:23.439Z,6.37
2022-10-01T06:45:29.386Z,7.57
2022-10-01T06:48:31.507Z,6.00
2022-10-01T06:51:51.531Z,6.20
2022-10-01T06:54:53.157Z,6.73
2022-10-01T06:57:56.094Z,8.80
2022-10-01T07:00:58.996Z,7.60
2022-10-01T07:04:00.705Z,9.93
2022-10-01T07:07:02.306Z,7.40
2022-10-01T07:10:08.054Z,6.10
2022-10-01T07:13:18.732Z,5.47
2022-10-01T07:16:20.941Z,5.75
2022-10-01T07:19:22.584Z,5.43
2022-10-01T07:22:25.228Z,5.97
2022-10-01T07:25:27.533Z,5.60
2022-10-01T07:28:29.303Z,7.80
2022-10-01T07:31:31.037Z,6.30
2022-10-01T07:34:32.721Z,6.63
2022-10-01T07:37:34.295Z,6.90
2022-10-01T07:40:35.975Z,6.10
2022-10-01T07:43:39.395Z,7.28
2022-10-01T07:46:40.945Z,8.63
2022-10-01T07:49:42.516Z,10.52
2022-10-01T07:52:44.127Z,10.02
2022-10-01T07:55:45.952Z,8.73
2022-10-01T07:58:47.554Z,9.02
2022-10-01T08:01:51.603Z,7.07
2022-10-01T08:05:11.635Z,7.22
2022-10-01T08:08:13.249Z,7.25
2022-10-01T08:11:17.870Z,5.75
2022-10-01T08:14:20.209Z,3.97
2022-10-01T08:17:24.048Z,3.35
2022-10-01T08:20:28.970Z,2.95
2022-10-01T08:23:33.447Z,3.30
2022-10-01T08:26:35.094Z,3.80
2022-10-01T08:29:36.663Z,2.90
2022-10-01T08:32:38.328Z,2.80
2022-10-01T08:35:40.577Z,2.90
2022-10-01T08:38:44.971Z,2.70
2022-10-01T08:41:49.764Z,2.70
2022-10-01T08:44:52.070Z,2.72
2022-10-01T08:48:14.873Z,2.95
2022-10-01T08:51:23.530Z,2.90
2022-10-01T08:54:47.166Z,2.50
2022-10-01T08:57:51.527Z,2.75
2022-10-01T09:00:53.335Z,2.85
2022-10-01T09:03:55.807Z,2.80
2022-10-01T09:07:05.587Z,2.60
2022-10-01T09:10:25.738Z,3.35
2022-10-01T09:13:49.355Z,3.10
2022-10-01T09:17:00.827Z,3.00
2022-10-01T09:20:11.532Z,2.95
2022-10-01T09:23:24.242Z,3.88
2022-10-01T09:26:25.944Z,2.75
2022-10-01T09:29:30.161Z,3.10
2022-10-01T09:32:34.455Z,2.55
2022-10-01T09:35:44.273Z,3.20
2022-10-01T09:38:55.426Z,2.88
2022-10-01T09:41:57.034Z,2.83
2022-10-01T09:44:59.054Z,2.88
2022-10-01T09:48:23.990Z,3.42
2022-10-01T09:51:29.000Z,3.20
2022-10-01T09:54:32.697Z,3.20
2022-10-01T09:57:46.219Z,3.05
2022-10-01T10:00:51.564Z,3.00
2022-10-01T10:03:54.455Z,3.40
2022-10-01T10:07:05.225Z,3.25
2022-10-01T10:10:26.124Z,3.83
2022-10-01T10:13:34.923Z,3.28
2022-10-01T10:16:37.828Z,3.40
2022-10-01T10:19:40.382Z,3.70
2022-10-01T10:22:41.977Z,3.17
2022-10-01T10:25:43.577Z,3.03
2022-10-01T10:28:46.701Z,3.00
2022-10-01T10:31:51.133Z,2.60
2022-10-01T10:34:59.770Z,3.05
2022-10-01T10:38:04.059Z,2.85
2022-10-01T10:41:06.278Z,2.55
2022-10-01T10:44:08.403Z,5.50
2022-10-01T10:47:14.560Z,3.20
2022-10-01T10:50:39.186Z,2.28
2022-10-01T10:53:44.614Z,3.00
2022-10-01T10:57:15.733Z,2.90
2022-10-01T11:00:19.012Z,3.10
2022-10-01T11:03:22.541Z,2.83
2022-10-01T11:06:24.179Z,2.85
2022-10-01T11:09:28.208Z,3.10
2022-10-01T11:12:49.990Z,2.90
2022-10-01T11:16:24.505Z,3.05
2022-10-01T11:19:50.152Z,3.13
2022-10-01T11:23:15.725Z,3.15
2022-10-01T11:26:24.032Z,3.70
2022-10-01T11:29:52.984Z,3.33
2022-10-01T11:33:03.799Z,3.40
2022-10-01T11:36:08.437Z,3.20
2022-10-01T11:39:18.651Z,3.65
2022-10-01T11:42:24.687Z,4.05
2022-10-01T11:45:29.470Z,3.80
2022-10-01T11:48:33.935Z,4.33
2022-10-01T11:51:39.582Z,4.55
2022-10-01T11:54:48.354Z,3.67
2022-10-01T11:58:12.021Z,2.33
2022-10-01T12:01:19.692Z,2.35
2022-10-01T12:04:21.853Z,2.30
2022-10-01T12:07:32.376Z,4.93
2022-10-01T12:10:38.879Z,2.90
2022-10-01T12:13:42.576Z,2.70
2022-10-01T12:16:52.065Z,2.22
2022-10-01T12:19:55.052Z,2.47
2022-10-01T12:22:58.269Z,2.78
2022-10-01T12:26:24.233Z,2.85
2022-10-01T12:29:38.697Z,2.42
2022-10-01T12:32:46.439Z,1.55
2022-10-01T12:35:48.012Z,2.10
2022-10-01T12:38:57.293Z,2.30
2022-10-01T12:42:05.251Z,2.10
2022-10-01T12:45:25.468Z,2.40
2022-10-01T12:48:36.341Z,2.83
2022-10-01T12:51:41.924Z,3.57
2022-10-01T12:54:49.525Z,3.40
2022-10-01T12:57:56.966Z,3.53
2022-10-01T13:01:17.449Z,3.40
2022-10-01T13:04:31.285Z,3.50
2022-10-01T13:07:49.062Z,3.60
2022-10-01T13:11:20.582Z,3.60
2022-10-01T13:14:22.543Z,3.40
2022-10-01T13:17:24.129Z,3.77
2022-10-01T13:20:44.035Z,3.43
2022-10-01T13:23:47.182Z,3.37
2022-10-01T13:26:55.994Z,3.90
2022-10-01T13:30:00.238Z,3.93
2022-10-01T13:33:01.931Z,3.80
2022-10-01T13:36:04.975Z,5.20
2022-10-01T13:39:06.547Z,4.60
2022-10-01T13:42:13.218Z,3.70
2022-10-01T13:45:22.998Z,4.50
2022-10-01T13:48:34.689Z,5.17
2022-10-01T13:51:37.519Z,4.77
2022-10-01T13:54:50.140Z,4.10
2022-10-01T13:58:01.315Z,4.37
2022-10-01T14:01:04.286Z,4.47
2022-10-01T14:04:08.995Z,4.00
2022-10-01T14:07:18.479Z,3.93
2022-10-01T14:10:20.654Z,4.40
2022-10-01T14:13:40.468Z,4.40
2022-10-01T14:16:44.105Z,3.67
2022-10-01T14:19:50.910Z,4.00
2022-10-01T14:22:58.403Z,4.17
2022-10-01T14:26:22.803Z,4.23
2022-10-01T14:29:27.422Z,5.20
2022-10-01T14:32:37.228Z,5.40
2022-10-01T14:35:45.753Z,5.20
2022-10-01T14:38:47.374Z,4.43
2022-10-01T14:41:50.209Z,4.13
2022-10-01T14:44:52.037Z,4.20
2022-10-01T14:48:04.294Z,4.40
2022-10-01T14:51:07.436Z,4.17
2022-10-01T14:54:13.183Z,4.17
2022-10-01T14:57:26.333Z,4.20
2022-10-01T15:00:29.267Z,5.80
2022-10-01T15:03:37.637Z,4.70
2022-10-01T15:06:42.815Z,6.80
2022-10-01T15:09:45.567Z,8.63
2022-10-01T15:12:49.265Z,8.53
2022-10-01T15:15:51.581Z,8.07
2022-10-01T15:18:55.028Z,7.60
2022-10-01T15:21:57.867Z,6.07
2022-10-01T15:25:00.935Z,7.33
2022-10-01T15:28:12.848Z,6.33
2022-10-01T15:31:15.349Z,14.90
2022-10-01T15:34:17.943Z,16.93
2022-10-01T15:37:22.482Z,12.30
2022-10-01T15:40:26.806Z,5.57
2022-10-01T15:43:31.635Z,6.23
2022-10-01T15:46:35.132Z,12.63
2022-10-01T15:49:37.381Z,4.97
2022-10-01T15:52:51.617Z,5.70
2022-10-01T15:55:56.184Z,5.20
2022-10-01T15:59:03.436Z,6.33
2022-10-01T16:02:08.067Z,6.20
2022-10-01T16:05:15.111Z,10.37
2022-10-01T16:08:21.436Z,13.20
2022-10-01T16:11:31.907Z,8.23
2022-10-01T16:14:33.644Z,5.80
2022-10-01T16:17:37.009Z,11.43
2022-10-01T16:20:38.722Z,6.27
2022-10-01T16:23:40.283Z,7.20
2022-10-01T16:26:42.571Z,6.60
2022-10-01T16:29:53.804Z,5.23
2022-10-01T16:32:56.148Z,5.47
2022-10-01T16:36:19.955Z,5.90
2022-10-01T16:39:23.225Z,4.70
2022-10-01T16:42:24.831Z,4.67
2022-10-01T16:45:28.535Z,4.70
2022-10-01T16:48:30.231Z,4.30
2022-10-01T16:51:32.025Z,4.03
2022-10-01T16:54:33.747Z,4.33
2022-10-01T16:57:35.319Z,4.50
2022-10-01T17:00:37.489Z,4.70
2022-10-01T17:03:39.471Z,3.50
2022-10-01T17:06:41.362Z,3.70
2022-10-01T17:09:43.059Z,3.90
2022-10-01T17:12:47.792Z,3.43
2022-10-01T17:15:50.747Z,3.40
2022-10-01T17:18:53.915Z,3.40
2022-10-01T17:21:55.951Z,2.90
2022-10-01T17:24:57.583Z,2.83
2022-10-01T17:27:59.757Z,4.23
2022-10-01T17:31:02.394Z,3.30
2022-10-01T17:34:04.707Z,3.87
2022-10-01T17:37:06.359Z,4.57
2022-10-01T17:40:08.741Z,4.63
2022-10-01T17:43:11.079Z,4.97
2022-10-01T17:46:12.694Z,5.33
2022-10-01T17:49:15.048Z,4.90
2022-10-01T17:52:17.566Z,5.30
2022-10-01T17:55:20.680Z,5.50
2022-10-01T17:58:22.332Z,5.43
2022-10-01T18:01:24.335Z,5.17
2022-10-01T18:04:26.179Z,5.10
2022-10-01T18:07:27.829Z,5.73
2022-10-01T18:10:29.442Z,4.90
2022-10-01T18:13:31.379Z,3.77
2022-10-01T18:16:34.147Z,4.03
2022-10-01T18:22:57.612Z,4.27
2022-10-01T18:25:59.742Z,5.20
2022-10-01T18:29:01.495Z,4.50
2022-10-01T18:32:09.263Z,4.30
2022-10-01T18:35:19.421Z,3.90
2022-10-01T18:38:25.429Z,8.60
2022-10-01T18:41:32.014Z,5.13
2022-10-01T18:44:33.980Z,3.93
2022-10-01T18:47:40.505Z,3.60
2022-10-01T18:50:43.266Z,4.20
2022-10-01T18:54:05.257Z,3.73
2022-10-01T18:57:12.758Z,3.93
2022-10-01T19:00:14.336Z,2.87
2022-10-01T19:03:25.335Z,3.93
2022-10-01T19:06:38.986Z,3.20
2022-10-01T19:09:51.950Z,2.00
2022-10-01T19:12:56.558Z,2.30
2022-10-01T19:16:33.915Z,2.10
2022-10-01T19:20:07.881Z,2.40
2022-10-01T19:23:29.685Z,1.97
2022-10-01T19:26:35.135Z,1.83
2022-10-01T19:29:48.915Z,2.43
2022-10-01T19:32:59.525Z,1.97
2022-10-01T19:36:01.539Z,2.37
2022-10-01T19:39:06.518Z,2.17
2022-10-01T19:42:16.578Z,2.20
2022-10-01T19:45:41.428Z,2.83
2022-10-01T19:48:49.267Z,4.10
2022-10-01T19:52:09.691Z,16.20
2022-10-01T19:55:15.796Z,3.80
2022-10-01T19:58:18.522Z,16.67
2022-10-01T20:01:21.970Z,3.10
2022-10-01T20:04:35.736Z,2.63
2022-10-01T20:07:41.258Z,3.07
2022-10-01T20:10:45.347Z,2.30
2022-10-01T20:13:52.572Z,2.33
2022-10-01T20:16:54.381Z,3.43
2022-10-01T20:20:01.519Z,4.00
2022-10-01T20:23:13.891Z,3.20
2022-10-01T20:26:33.945Z,3.23
2022-10-01T20:29:47.760Z,3.63
2022-10-01T20:32:52.125Z,5.67
2022-10-01T20:36:03.637Z,3.50
2022-10-01T20:39:12.917Z,4.30
2022-10-01T20:42:18.200Z,9.50
2022-10-01T20:45:24.527Z,3.03
2022-10-01T20:48:29.911Z,2.57
2022-10-01T20:51:37.289Z,3.07
2022-10-01T20:54:46.623Z,3.40
2022-10-01T20:57:50.909Z,3.30
2022-10-01T21:00:55.303Z,2.80
2022-10-01T21:04:02.420Z,2.80
2022-10-01T21:07:23.241Z,2.37
2022-10-01T21:10:34.073Z,2.77
2022-10-01T21:13:41.560Z,2.37
2022-10-01T21:17:05.311Z,2.10
2022-10-01T21:20:06.990Z,2.50
2022-10-01T21:23:08.561Z,2.07
2022-10-01T21:26:13.379Z,2.83
2022-10-01T21:29:30.371Z,2.70
2022-10-01T21:32:32.257Z,2.77
2022-10-01T21:35:52.701Z,2.73
2022-10-01T21:39:05.691Z,2.70
2022-10-01T21:42:22.180Z,2.60
2022-10-01T21:45:43.174Z,3.00
2022-10-01T21:48:44.877Z,2.83
2022-10-01T21:51:46.475Z,2.93
2022-10-01T21:54:49.458Z,2.97
2022-10-01T21:57:51.695Z,2.70
2022-10-01T22:01:01.631Z,2.97
2022-10-01T22:04:11.637Z,2.67
2022-10-01T22:07:31.832Z,4.00
2022-10-01T22:10:38.452Z,11.63
2022-10-01T22:13:43.373Z,4.50
2022-10-01T22:16:52.081Z,3.10
2022-10-01T22:19:56.958Z,3.47
2022-10-01T22:23:01.454Z,3.10
2022-10-01T22:26:06.965Z,2.80
2022-10-01T22:29:14.753Z,2.83
2022-10-01T22:32:17.796Z,2.93
2022-10-01T22:35:21.909Z,2.40
2022-10-01T22:38:26.474Z,2.43
2022-10-01T22:41:32.225Z,2.57
2022-10-01T22:44:33.903Z,2.97
2022-10-01T22:47:35.462Z,3.13
2022-10-01T22:50:37.932Z,2.73
2022-10-01T22:54:05.691Z,2.80
2022-10-01T22:57:07.497Z,2.70
2022-10-01T23:00:10.783Z,2.80
2022-10-01T23:03:12.366Z,3.10
2022-10-01T23:06:34.687Z,2.90
2022-10-01T23:09:38.664Z,2.90
2022-10-01T23:13:05.392Z,3.20
2022-10-01T23:16:16.285Z,3.00
2022-10-01T23:19:21.179Z,2.93
2022-10-01T23:22:22.837Z,2.97
2022-10-01T23:25:36.988Z,4.07
2022-10-01T23:28:41.718Z,3.80
2022-10-01T23:31:54.260Z,3.57
2022-10-01T23:35:05.643Z,3.97
2022-10-01T23:38:07.256Z,3.30
2022-10-01T23:41:12.275Z,4.03
2022-10-01T23:44:32.328Z,3.93
2022-10-01T23:47:57.316Z,3.70
2022-10-01T23:51:20.576Z,3.77
2022-10-01T23:54:44.562Z,3.53
2022-10-01T23:57:47.320Z,4.00
